sensor_id;sensor_type;location;lat;lon;timestamp;pressure;altitude;pressure_sealevel;temperature;humidity
74552;BME280;63025;55.472;38.432;2023-03-20T00:01:10;100805.47;;;-4.31;69.90
74552;BME280;63025;55.472;38.432;2023-03-20T00:03:36;100796.56;;;-4.29;69.92
74552;BME280;63025;55.472;38.432;2023-03-20T00:06:03;100795.81;;;-4.31;70.34
74552;BME280;63025;55.472;38.432;2023-03-20T00:08:28;100794.53;;;-4.38;69.75
74552;BME280;63025;55.472;38.432;2023-03-20T00:10:57;100788.88;;;-4.46;69.99
74552;BME280;63025;55.472;38.432;2023-03-20T00:13:24;100787.25;;;-4.47;70.58
74552;BME280;63025;55.472;38.432;2023-03-20T00:15:53;100790.50;;;-4.44;70.82
74552;BME280;63025;55.472;38.432;2023-03-20T00:18:21;100779.16;;;-4.44;71.35
74552;BME280;63025;55.472;38.432;2023-03-20T00:20:51;100779.50;;;-4.36;71.29
74552;BME280;63025;55.472;38.432;2023-03-20T00:23:18;100775.66;;;-4.30;71.61
74552;BME280;63025;55.472;38.432;2023-03-20T00:25:45;100786.63;;;-4.24;72.10
74552;BME280;63025;55.472;38.432;2023-03-20T00:31:03;100775.84;;;-4.19;71.67
74552;BME280;63025;55.472;38.432;2023-03-20T00:33:29;100779.41;;;-4.20;71.77
74552;BME280;63025;55.472;38.432;2023-03-20T00:35:55;100769.09;;;-4.23;72.32
74552;BME280;63025;55.472;38.432;2023-03-20T00:38:23;100772.47;;;-4.21;71.89
74552;BME280;63025;55.472;38.432;2023-03-20T00:40:50;100774.16;;;-4.20;71.87
74552;BME280;63025;55.472;38.432;2023-03-20T00:43:16;100768.91;;;-4.20;71.63
74552;BME280;63025;55.472;38.432;2023-03-20T00:45:43;100768.16;;;-4.22;71.75
74552;BME280;63025;55.472;38.432;2023-03-20T00:48:13;100765.53;;;-4.22;71.22
74552;BME280;63025;55.472;38.432;2023-03-20T00:50:42;100756.91;;;-4.24;71.46
74552;BME280;63025;55.472;38.432;2023-03-20T00:53:10;100756.28;;;-4.28;71.54
74552;BME280;63025;55.472;38.432;2023-03-20T00:55:38;100754.50;;;-4.27;72.05
74552;BME280;63025;55.472;38.432;2023-03-20T00:58:05;100756.28;;;-4.28;72.64
74552;BME280;63025;55.472;38.432;2023-03-20T01:00:41;100756.03;;;-4.37;72.01
74552;BME280;63025;55.472;38.432;2023-03-20T01:03:14;100753.06;;;-4.60;71.79
74552;BME280;63025;55.472;38.432;2023-03-20T01:05:40;100756.44;;;-4.58;71.66
74552;BME280;63025;55.472;38.432;2023-03-20T01:08:33;100763.34;;;-4.57;71.34
74552;BME280;63025;55.472;38.432;2023-03-20T01:10:58;100762.53;;;-4.71;71.44
74552;BME280;63025;55.472;38.432;2023-03-20T01:13:27;100759.44;;;-4.78;71.58
74552;BME280;63025;55.472;38.432;2023-03-20T01:15:54;100757.63;;;-4.77;71.61
74552;BME280;63025;55.472;38.432;2023-03-20T01:18:23;100748.97;;;-4.78;71.81
74552;BME280;63025;55.472;38.432;2023-03-20T01:20:49;100751.59;;;-4.78;70.64
74552;BME280;63025;55.472;38.432;2023-03-20T01:23:18;100752.50;;;-4.79;71.07
74552;BME280;63025;55.472;38.432;2023-03-20T01:25:45;100745.50;;;-4.78;71.44
74552;BME280;63025;55.472;38.432;2023-03-20T01:28:17;100752.59;;;-4.81;71.26
74552;BME280;63025;55.472;38.432;2023-03-20T01:30:45;100747.44;;;-4.82;72.18
74552;BME280;63025;55.472;38.432;2023-03-20T01:33:16;100749.22;;;-4.83;70.99
74552;BME280;63025;55.472;38.432;2023-03-20T01:35:45;100738.06;;;-4.86;71.59
74552;BME280;63025;55.472;38.432;2023-03-20T01:38:18;100749.50;;;-4.87;70.96
74552;BME280;63025;55.472;38.432;2023-03-20T01:41:12;100749.41;;;-4.86;72.10
74552;BME280;63025;55.472;38.432;2023-03-20T01:43:40;100755.59;;;-4.87;70.90
74552;BME280;63025;55.472;38.432;2023-03-20T01:51:24;100754.47;;;-4.83;71.10
74552;BME280;63025;55.472;38.432;2023-03-20T01:53:58;100741.91;;;-4.77;71.31
74552;BME280;63025;55.472;38.432;2023-03-20T01:56:30;100746.97;;;-4.74;70.78
74552;BME280;63025;55.472;38.432;2023-03-20T01:59:05;100746.34;;;-4.78;71.81
74552;BME280;63025;55.472;38.432;2023-03-20T02:01:34;100739.94;;;-4.74;70.82
74552;BME280;63025;55.472;38.432;2023-03-20T02:04:01;100746.34;;;-4.78;71.78
74552;BME280;63025;55.472;38.432;2023-03-20T02:06:54;100739.69;;;-4.69;71.11
74552;BME280;63025;55.472;38.432;2023-03-20T02:09:33;100733.19;;;-4.64;71.32
74552;BME280;63025;55.472;38.432;2023-03-20T02:12:01;100733.47;;;-4.54;71.33
74552;BME280;63025;55.472;38.432;2023-03-20T02:14:28;100729.63;;;-4.49;71.31
74552;BME280;63025;55.472;38.432;2023-03-20T02:17:25;100728.78;;;-4.49;71.41
74552;BME280;63025;55.472;38.432;2023-03-20T02:43:15;100718.63;;;-4.82;70.47
74552;BME280;63025;55.472;38.432;2023-03-20T02:46:01;100717.09;;;-4.86;70.22
74552;BME280;63025;55.472;38.432;2023-03-20T02:48:50;100708.78;;;-4.93;70.83
74552;BME280;63025;55.472;38.432;2023-03-20T02:51:39;100716.66;;;-5.07;71.16
74552;BME280;63025;55.472;38.432;2023-03-20T02:54:27;100715.63;;;-5.04;70.68
74552;BME280;63025;55.472;38.432;2023-03-20T02:57:02;100717.50;;;-5.06;70.18
74552;BME280;63025;55.472;38.432;2023-03-20T03:02:05;100715.97;;;-5.39;71.37
74552;BME280;63025;55.472;38.432;2023-03-20T03:04:36;100717.41;;;-5.33;71.25
74552;BME280;63025;55.472;38.432;2023-03-20T03:07:04;100719.94;;;-5.32;71.53
74552;BME280;63025;55.472;38.432;2023-03-20T03:09:35;100725.25;;;-5.33;70.90
74552;BME280;63025;55.472;38.432;2023-03-20T03:12:14;100712.63;;;-5.41;71.24
74552;BME280;63025;55.472;38.432;2023-03-20T03:14:46;100716.94;;;-5.40;70.62
74552;BME280;63025;55.472;38.432;2023-03-20T03:17:16;100713.47;;;-5.40;70.91
74552;BME280;63025;55.472;38.432;2023-03-20T03:19:50;100711.78;;;-5.41;70.55
74552;BME280;63025;55.472;38.432;2023-03-20T03:22:17;100704.09;;;-5.44;70.35
74552;BME280;63025;55.472;38.432;2023-03-20T03:24:49;100705.88;;;-5.45;70.03
74552;BME280;63025;55.472;38.432;2023-03-20T03:27:28;100702.59;;;-5.48;70.21
74552;BME280;63025;55.472;38.432;2023-03-20T03:30:01;100695.56;;;-5.48;70.13
74552;BME280;63025;55.472;38.432;2023-03-20T03:32:33;100690.63;;;-5.52;69.43
74552;BME280;63025;55.472;38.432;2023-03-20T03:35:02;100690.03;;;-5.58;70.18
74552;BME280;63025;55.472;38.432;2023-03-20T03:38:23;100685.94;;;-5.62;70.34
74552;BME280;63025;55.472;38.432;2023-03-20T03:40:44;100685.75;;;-5.59;71.23
74552;BME280;63025;55.472;38.432;2023-03-20T03:43:20;100685.31;;;-5.51;71.28
74552;BME280;63025;55.472;38.432;2023-03-20T03:45:52;100680.34;;;-5.41;71.53
74552;BME280;63025;55.472;38.432;2023-03-20T03:48:22;100682.50;;;-5.34;71.50
74552;BME280;63025;55.472;38.432;2023-03-20T03:51:05;100684.09;;;-5.31;71.54
74552;BME280;63025;55.472;38.432;2023-03-20T03:53:40;100670.91;;;-5.30;71.46
74552;BME280;63025;55.472;38.432;2023-03-20T03:56:11;100680.16;;;-5.24;71.57
74552;BME280;63025;55.472;38.432;2023-03-20T03:58:41;100679.06;;;-5.20;71.14
74552;BME280;63025;55.472;38.432;2023-03-20T04:01:09;100684.38;;;-5.22;70.42
74552;BME280;63025;55.472;38.432;2023-03-20T04:03:41;100682.31;;;-5.17;71.18
74552;BME280;63025;55.472;38.432;2023-03-20T04:06:10;100686.44;;;-5.12;70.65
74552;BME280;63025;55.472;38.432;2023-03-20T04:08:39;100687.19;;;-5.10;71.22
74552;BME280;63025;55.472;38.432;2023-03-20T04:11:07;100683.16;;;-5.02;71.74
74552;BME280;63025;55.472;38.432;2023-03-20T04:13:37;100688.09;;;-4.97;71.09
74552;BME280;63025;55.472;38.432;2023-03-20T04:16:03;100686.06;;;-4.92;71.52
74552;BME280;63025;55.472;38.432;2023-03-20T04:18:29;100681.25;;;-4.86;71.18
74552;BME280;63025;55.472;38.432;2023-03-20T04:20:55;100680.88;;;-4.79;71.06
74552;BME280;63025;55.472;38.432;2023-03-20T04:23:21;100685.81;;;-4.75;70.73
74552;BME280;63025;55.472;38.432;2023-03-20T04:25:48;100684.63;;;-4.69;70.40
74552;BME280;63025;55.472;38.432;2023-03-20T04:28:14;100678.88;;;-4.62;70.43
74552;BME280;63025;55.472;38.432;2023-03-20T04:30:53;100685.22;;;-4.52;70.39
74552;BME280;63025;55.472;38.432;2023-03-20T04:33:51;100685.38;;;-4.40;70.96
74552;BME280;63025;55.472;38.432;2023-03-20T04:36:35;100671.66;;;-4.31;70.33
74552;BME280;63025;55.472;38.432;2023-03-20T04:39:03;100676.31;;;-4.22;70.09
74552;BME280;63025;55.472;38.432;2023-03-20T04:41:29;100669.72;;;-4.15;69.85
74552;BME280;63025;55.472;38.432;2023-03-20T04:43:56;100673.88;;;-3.98;70.52
74552;BME280;63025;55.472;38.432;2023-03-20T04:46:23;100675.97;;;-3.91;70.18
74552;BME280;63025;55.472;38.432;2023-03-20T04:48:49;100673.47;;;-3.80;70.27
74552;BME280;63025;55.472;38.432;2023-03-20T04:51:15;100668.06;;;-3.64;70.46
74552;BME280;63025;55.472;38.432;2023-03-20T04:53:48;100660.59;;;-3.57;70.46
74552;BME280;63025;55.472;38.432;2023-03-20T04:56:14;100667.84;;;-3.48;70.06
74552;BME280;63025;55.472;38.432;2023-03-20T04:58:40;100677.91;;;-3.42;70.12
74552;BME280;63025;55.472;38.432;2023-03-20T05:01:07;100674.47;;;-3.30;70.75
74552;BME280;63025;55.472;38.432;2023-03-20T05:03:33;100667.09;;;-3.12;70.79
74552;BME280;63025;55.472;38.432;2023-03-20T05:06:00;100666.13;;;-2.99;70.80
74552;BME280;63025;55.472;38.432;2023-03-20T05:08:26;100665.16;;;-2.85;70.91
74552;BME280;63025;55.472;38.432;2023-03-20T05:10:56;100676.06;;;-2.78;70.34
74552;BME280;63025;55.472;38.432;2023-03-20T05:13:42;100674.25;;;-2.65;70.42
74552;BME280;63025;55.472;38.432;2023-03-20T05:16:28;100677.69;;;-2.52;70.70
74552;BME280;63025;55.472;38.432;2023-03-20T05:19:10;100686.38;;;-2.39;71.37
74552;BME280;63025;55.472;38.432;2023-03-20T05:21:56;100669.94;;;-2.30;70.78
74552;BME280;63025;55.472;38.432;2023-03-20T05:24:47;100672.38;;;-2.15;71.43
74552;BME280;63025;55.472;38.432;2023-03-20T05:27:32;100677.69;;;-2.04;70.79
74552;BME280;63025;55.472;38.432;2023-03-20T05:30:16;100676.06;;;-1.94;71.32
74552;BME280;63025;55.472;38.432;2023-03-20T05:33:10;100667.03;;;-1.79;70.84
74552;BME280;63025;55.472;38.432;2023-03-20T05:35:50;100677.34;;;-1.65;71.25
74552;BME280;63025;55.472;38.432;2023-03-20T05:38:34;100668.88;;;-1.57;70.80
74552;BME280;63025;55.472;38.432;2023-03-20T05:41:24;100674.31;;;-1.36;71.04
74552;BME280;63025;55.472;38.432;2023-03-20T05:44:10;100671.66;;;-1.14;71.04
74552;BME280;63025;55.472;38.432;2023-03-20T05:47:08;100670.00;;;-0.93;70.30
74552;BME280;63025;55.472;38.432;2023-03-20T05:49:52;100663.75;;;-0.69;70.09
74552;BME280;63025;55.472;38.432;2023-03-20T05:52:24;100661.09;;;-0.58;70.17
74552;BME280;63025;55.472;38.432;2023-03-20T05:55:14;100668.34;;;-0.40;69.83
74552;BME280;63025;55.472;38.432;2023-03-20T05:57:53;100664.25;;;-0.21;69.65
74552;BME280;63025;55.472;38.432;2023-03-20T06:00:48;100658.41;;;-0.04;68.65
74552;BME280;63025;55.472;38.432;2023-03-20T06:03:32;100657.97;;;0.12;68.66
74552;BME280;63025;55.472;38.432;2023-03-20T06:06:05;100662.75;;;0.18;68.66
74552;BME280;63025;55.472;38.432;2023-03-20T06:08:32;100663.91;;;0.25;67.97
74552;BME280;63025;55.472;38.432;2023-03-20T06:10:59;100658.44;;;0.38;67.81
74552;BME280;63025;55.472;38.432;2023-03-20T06:13:25;100666.19;;;0.50;67.95
74552;BME280;63025;55.472;38.432;2023-03-20T06:15:51;100662.22;;;0.65;66.98
74552;BME280;63025;55.472;38.432;2023-03-20T06:18:17;100670.34;;;0.73;65.77
74552;BME280;63025;55.472;38.432;2023-03-20T06:20:43;100671.81;;;0.87;66.00
74552;BME280;63025;55.472;38.432;2023-03-20T06:23:09;100669.25;;;1.06;65.73
74552;BME280;63025;55.472;38.432;2023-03-20T06:25:35;100661.91;;;1.20;64.89
74552;BME280;63025;55.472;38.432;2023-03-20T06:28:01;100659.59;;;1.36;64.93
74552;BME280;63025;55.472;38.432;2023-03-20T06:30:27;100670.06;;;1.37;64.65
74552;BME280;63025;55.472;38.432;2023-03-20T06:32:53;100661.28;;;1.46;64.84
74552;BME280;63025;55.472;38.432;2023-03-20T06:35:21;100659.50;;;1.57;63.70
74552;BME280;63025;55.472;38.432;2023-03-20T06:37:49;100654.78;;;1.70;64.39
74552;BME280;63025;55.472;38.432;2023-03-20T06:40:20;100654.09;;;1.87;63.88
74552;BME280;63025;55.472;38.432;2023-03-20T06:42:47;100656.47;;;2.00;63.25
74552;BME280;63025;55.472;38.432;2023-03-20T06:45:14;100647.16;;;2.15;62.21
74552;BME280;63025;55.472;38.432;2023-03-20T06:47:53;100652.31;;;2.26;62.76
74552;BME280;63025;55.472;38.432;2023-03-20T06:50:19;100647.13;;;2.34;62.04
74552;BME280;63025;55.472;38.432;2023-03-20T06:52:45;100645.53;;;2.51;61.66
74552;BME280;63025;55.472;38.432;2023-03-20T06:55:38;100651.09;;;2.67;61.58
74552;BME280;63025;55.472;38.432;2023-03-20T06:58:04;100648.09;;;2.89;60.85
74552;BME280;63025;55.472;38.432;2023-03-20T07:00:31;100654.31;;;3.08;60.73
74552;BME280;63025;55.472;38.432;2023-03-20T07:03:01;100646.03;;;3.20;59.93
74552;BME280;63025;55.472;38.432;2023-03-20T07:05:27;100641.03;;;3.35;59.06
74552;BME280;63025;55.472;38.432;2023-03-20T07:07:54;100641.53;;;3.48;58.81
74552;BME280;63025;55.472;38.432;2023-03-20T07:10:20;100640.81;;;3.74;59.10
74552;BME280;63025;55.472;38.432;2023-03-20T07:12:50;100634.66;;;3.91;57.99
74552;BME280;63025;55.472;38.432;2023-03-20T07:15:17;100640.81;;;4.09;57.10
74552;BME280;63025;55.472;38.432;2023-03-20T07:17:43;100639.34;;;4.32;56.62
74552;BME280;63025;55.472;38.432;2023-03-20T07:20:10;100635.78;;;4.50;56.21
74552;BME280;63025;55.472;38.432;2023-03-20T07:22:36;100631.63;;;4.73;54.86
74552;BME280;63025;55.472;38.432;2023-03-20T07:25:12;100635.50;;;5.12;53.87
74552;BME280;63025;55.472;38.432;2023-03-20T07:27:39;100637.00;;;5.65;52.92
74552;BME280;63025;55.472;38.432;2023-03-20T07:30:06;100630.09;;;6.45;51.21
74552;BME280;63025;55.472;38.432;2023-03-20T07:32:34;100624.78;;;7.09;49.07
74552;BME280;63025;55.472;38.432;2023-03-20T07:35:00;100619.44;;;7.79;47.77
74552;BME280;63025;55.472;38.432;2023-03-20T07:37:29;100627.63;;;8.23;46.19
74552;BME280;63025;55.472;38.432;2023-03-20T07:39:59;100619.56;;;8.98;44.70
74552;BME280;63025;55.472;38.432;2023-03-20T07:42:32;100609.63;;;9.42;43.46
74552;BME280;63025;55.472;38.432;2023-03-20T07:45:06;100612.91;;;10.16;42.63
74552;BME280;63025;55.472;38.432;2023-03-20T07:47:32;100618.78;;;11.10;41.28
74552;BME280;63025;55.472;38.432;2023-03-20T07:49:58;100616.03;;;11.38;39.45
74552;BME280;63025;55.472;38.432;2023-03-20T07:52:24;100617.50;;;12.28;38.23
74552;BME280;63025;55.472;38.432;2023-03-20T07:54:51;100621.81;;;13.08;36.95
74552;BME280;63025;55.472;38.432;2023-03-20T07:57:17;100621.41;;;12.91;35.85
74552;BME280;63025;55.472;38.432;2023-03-20T07:59:43;100623.28;;;13.17;35.22
74552;BME280;63025;55.472;38.432;2023-03-20T08:02:16;100614.94;;;13.18;34.55
74552;BME280;63025;55.472;38.432;2023-03-20T08:04:43;100613.66;;;14.10;33.98
74552;BME280;63025;55.472;38.432;2023-03-20T08:07:09;100609.19;;;14.97;33.04
74552;BME280;63025;55.472;38.432;2023-03-20T08:09:36;100614.38;;;14.98;31.66
74552;BME280;63025;55.472;38.432;2023-03-20T08:12:02;100617.19;;;14.67;31.32
74552;BME280;63025;55.472;38.432;2023-03-20T08:14:28;100607.88;;;15.24;31.30
74552;BME280;63025;55.472;38.432;2023-03-20T08:16:54;100615.09;;;15.78;30.50
74552;BME280;63025;55.472;38.432;2023-03-20T08:19:19;100610.19;;;16.40;29.69
74552;BME280;63025;55.472;38.432;2023-03-20T08:21:46;100606.34;;;17.06;28.76
74552;BME280;63025;55.472;38.432;2023-03-20T08:24:11;100608.75;;;16.91;27.93
74552;BME280;63025;55.472;38.432;2023-03-20T08:26:37;100606.50;;;16.11;28.24
74552;BME280;63025;55.472;38.432;2023-03-20T08:29:03;100608.25;;;16.59;28.29
74552;BME280;63025;55.472;38.432;2023-03-20T08:31:29;100605.53;;;16.82;27.96
74552;BME280;63025;55.472;38.432;2023-03-20T08:33:56;100602.81;;;17.57;27.28
74552;BME280;63025;55.472;38.432;2023-03-20T08:36:22;100608.91;;;17.24;27.11
74552;BME280;63025;55.472;38.432;2023-03-20T08:38:48;100599.56;;;17.84;26.84
74552;BME280;63025;55.472;38.432;2023-03-20T08:41:15;100598.16;;;18.26;26.23
74552;BME280;63025;55.472;38.432;2023-03-20T08:43:56;100602.84;;;18.14;25.93
74552;BME280;63025;55.472;38.432;2023-03-20T08:46:22;100611.88;;;18.03;26.01
74552;BME280;63025;55.472;38.432;2023-03-20T08:48:48;100608.81;;;17.31;26.29
74552;BME280;63025;55.472;38.432;2023-03-20T08:51:13;100609.88;;;17.30;26.57
74552;BME280;63025;55.472;38.432;2023-03-20T08:53:39;100597.41;;;17.86;25.97
74552;BME280;63025;55.472;38.432;2023-03-20T08:56:06;100600.88;;;18.26;25.81
74552;BME280;63025;55.472;38.432;2023-03-20T08:58:32;100594.84;;;17.79;25.79
74552;BME280;63025;55.472;38.432;2023-03-20T09:01:05;100598.50;;;19.02;25.07
74552;BME280;63025;55.472;38.432;2023-03-20T09:03:32;100587.50;;;18.75;24.93
74552;BME280;63025;55.472;38.432;2023-03-20T09:05:58;100595.47;;;17.70;25.10
74552;BME280;63025;55.472;38.432;2023-03-20T09:08:24;100592.38;;;16.33;26.38
74552;BME280;63025;55.472;38.432;2023-03-20T09:10:50;100596.84;;;16.80;26.57
74552;BME280;63025;55.472;38.432;2023-03-20T09:13:16;100586.09;;;16.21;26.89
74552;BME280;63025;55.472;38.432;2023-03-20T09:15:42;100577.25;;;15.72;27.14
74552;BME280;63025;55.472;38.432;2023-03-20T09:18:08;100574.78;;;15.04;28.39
74552;BME280;63025;55.472;38.432;2023-03-20T09:20:33;100580.19;;;15.04;28.56
74552;BME280;63025;55.472;38.432;2023-03-20T09:22:59;100568.34;;;15.83;28.34
74552;BME280;63025;55.472;38.432;2023-03-20T09:25:25;100572.44;;;16.15;27.74
74552;BME280;63025;55.472;38.432;2023-03-20T09:27:53;100565.03;;;16.93;27.12
74552;BME280;63025;55.472;38.432;2023-03-20T09:30:22;100563.31;;;17.67;26.11
74552;BME280;63025;55.472;38.432;2023-03-20T09:32:49;100569.66;;;18.17;25.90
74552;BME280;63025;55.472;38.432;2023-03-20T09:35:16;100566.88;;;17.55;25.80
74552;BME280;63025;55.472;38.432;2023-03-20T09:37:43;100562.09;;;18.53;25.14
74552;BME280;63025;55.472;38.432;2023-03-20T09:40:20;100562.94;;;19.30;24.03
74552;BME280;63025;55.472;38.432;2023-03-20T09:45:42;100548.44;;;20.00;22.71
74552;BME280;63025;55.472;38.432;2023-03-20T09:48:27;100541.84;;;20.28;23.13
74552;BME280;63025;55.472;38.432;2023-03-20T09:54:11;100531.88;;;20.12;23.00
74552;BME280;63025;55.472;38.432;2023-03-20T09:56:40;100539.13;;;21.17;22.50
74552;BME280;63025;55.472;38.432;2023-03-20T09:59:06;100542.75;;;20.81;22.16
74552;BME280;63025;55.472;38.432;2023-03-20T10:01:38;100537.50;;;20.32;22.35
74552;BME280;63025;55.472;38.432;2023-03-20T10:04:08;100540.91;;;20.86;22.24
74552;BME280;63025;55.472;38.432;2023-03-20T10:06:34;100536.72;;;20.74;21.73
74552;BME280;63025;55.472;38.432;2023-03-20T10:09:01;100523.53;;;19.43;22.33
74552;BME280;63025;55.472;38.432;2023-03-20T10:19:56;100523.41;;;16.75;25.78
74552;BME280;63025;55.472;38.432;2023-03-20T10:22:30;100513.72;;;15.68;27.13
74552;BME280;63025;55.472;38.432;2023-03-20T10:27:47;100487.94;;;15.47;28.56
74552;BME280;63025;55.472;38.432;2023-03-20T10:35:48;100494.97;;;16.66;27.33
74552;BME280;63025;55.472;38.432;2023-03-20T10:38:37;100485.88;;;16.02;27.54
74552;BME280;63025;55.472;38.432;2023-03-20T10:41:12;100489.22;;;15.63;28.11
74552;BME280;63025;55.472;38.432;2023-03-20T10:43:41;100486.50;;;15.63;28.32
74552;BME280;63025;55.472;38.432;2023-03-20T10:46:27;100486.13;;;16.36;28.47
74552;BME280;63025;55.472;38.432;2023-03-20T10:49:08;100479.03;;;16.35;27.79
74552;BME280;63025;55.472;38.432;2023-03-20T10:51:43;100483.13;;;15.91;28.18
74552;BME280;63025;55.472;38.432;2023-03-20T10:56:49;100475.44;;;14.86;29.47
74552;BME280;63025;55.472;38.432;2023-03-20T11:01:47;100469.59;;;14.28;29.66
74552;BME280;63025;55.472;38.432;2023-03-20T11:04:13;100475.47;;;13.75;30.47
74552;BME280;63025;55.472;38.432;2023-03-20T11:09:29;100461.28;;;14.05;31.08
74552;BME280;63025;55.472;38.432;2023-03-20T11:11:57;100459.84;;;14.27;31.39
74552;BME280;63025;55.472;38.432;2023-03-20T11:14:27;100454.25;;;15.43;30.29
74552;BME280;63025;55.472;38.432;2023-03-20T11:16:59;100461.81;;;16.41;28.85
74552;BME280;63025;55.472;38.432;2023-03-20T11:19:26;100452.47;;;15.78;29.06
74552;BME280;63025;55.472;38.432;2023-03-20T11:21:54;100448.97;;;16.01;28.78
74552;BME280;63025;55.472;38.432;2023-03-20T11:24:32;100452.06;;;17.48;27.58
74552;BME280;63025;55.472;38.432;2023-03-20T11:27:06;100442.53;;;18.29;26.52
74552;BME280;63025;55.472;38.432;2023-03-20T11:29:33;100448.00;;;17.79;26.17
74552;BME280;63025;55.472;38.432;2023-03-20T11:34:40;100440.00;;;18.83;25.13
74552;BME280;63025;55.472;38.432;2023-03-20T11:37:28;100438.91;;;18.07;25.31
74552;BME280;63025;55.472;38.432;2023-03-20T11:40:00;100427.84;;;17.75;25.91
74552;BME280;63025;55.472;38.432;2023-03-20T11:42:32;100419.78;;;17.07;25.97
74552;BME280;63025;55.472;38.432;2023-03-20T11:45:04;100427.81;;;16.73;26.85
74552;BME280;63025;55.472;38.432;2023-03-20T11:47:33;100428.56;;;16.97;26.96
74552;BME280;63025;55.472;38.432;2023-03-20T11:50:03;100419.81;;;16.95;27.06
74552;BME280;63025;55.472;38.432;2023-03-20T11:52:33;100425.28;;;15.97;27.56
74552;BME280;63025;55.472;38.432;2023-03-20T11:55:03;100415.50;;;15.42;28.36
74552;BME280;63025;55.472;38.432;2023-03-20T11:57:37;100411.31;;;14.87;29.23
74552;BME280;63025;55.472;38.432;2023-03-20T12:02:36;100413.66;;;15.13;30.09
74552;BME280;63025;55.472;38.432;2023-03-20T12:05:30;100400.50;;;15.28;29.98
74552;BME280;63025;55.472;38.432;2023-03-20T12:08:14;100406.31;;;14.54;30.28
74552;BME280;63025;55.472;38.432;2023-03-20T12:10:49;100404.84;;;13.72;31.14
74552;BME280;63025;55.472;38.432;2023-03-20T12:13:22;100405.75;;;13.34;31.87
74552;BME280;63025;55.472;38.432;2023-03-20T12:16:00;100397.88;;;13.33;32.24
74552;BME280;63025;55.472;38.432;2023-03-20T12:18:46;100395.41;;;12.48;33.55
74552;BME280;63025;55.472;38.432;2023-03-20T12:21:39;100392.91;;;12.47;33.69
74552;BME280;63025;55.472;38.432;2023-03-20T12:24:16;100389.59;;;12.52;34.24
74552;BME280;63025;55.472;38.432;2023-03-20T12:26:57;100387.94;;;12.50;34.40
74552;BME280;63025;55.472;38.432;2023-03-20T12:29:37;100381.38;;;12.33;34.35
74552;BME280;63025;55.472;38.432;2023-03-20T12:32:22;100389.34;;;11.49;35.33
74552;BME280;63025;55.472;38.432;2023-03-20T12:35:06;100388.47;;;11.22;36.42
74552;BME280;63025;55.472;38.432;2023-03-20T12:37:35;100381.88;;;11.25;36.61
74552;BME280;63025;55.472;38.432;2023-03-20T12:40:01;100378.16;;;11.39;36.56
74552;BME280;63025;55.472;38.432;2023-03-20T12:42:51;100371.88;;;10.92;37.36
74552;BME280;63025;55.472;38.432;2023-03-20T12:45:20;100367.28;;;10.80;37.78
74552;BME280;63025;55.472;38.432;2023-03-20T12:59:10;100352.13;;;10.59;38.66
74552;BME280;63025;55.472;38.432;2023-03-20T13:01:45;100350.44;;;10.45;38.82
74552;BME280;63025;55.472;38.432;2023-03-20T13:07:20;100344.84;;;10.40;38.66
74552;BME280;63025;55.472;38.432;2023-03-20T13:10:00;100347.13;;;10.43;38.77
74552;BME280;63025;55.472;38.432;2023-03-20T13:12:39;100351.41;;;9.62;39.27
74552;BME280;63025;55.472;38.432;2023-03-20T13:15:26;100354.09;;;9.62;40.02
74552;BME280;63025;55.472;38.432;2023-03-20T13:18:13;100344.28;;;9.75;39.87
74552;BME280;63025;55.472;38.432;2023-03-20T13:23:25;100334.56;;;9.18;40.33
74552;BME280;63025;55.472;38.432;2023-03-20T13:33:59;100319.81;;;8.65;42.12
74552;BME280;63025;55.472;38.432;2023-03-20T13:39:24;100320.78;;;8.58;42.41
74552;BME280;63025;55.472;38.432;2023-03-20T13:41:52;100308.16;;;8.22;42.84
74552;BME280;63025;55.472;38.432;2023-03-20T13:44:22;100309.63;;;8.25;43.48
74552;BME280;63025;55.472;38.432;2023-03-20T13:46:52;100307.91;;;8.32;44.18
74552;BME280;63025;55.472;38.432;2023-03-20T13:50:18;100298.00;;;8.32;43.80
74552;BME280;63025;55.472;38.432;2023-03-20T13:52:51;100299.22;;;8.30;43.93
74552;BME280;63025;55.472;38.432;2023-03-20T13:55:28;100294.06;;;8.14;44.13
74552;BME280;63025;55.472;38.432;2023-03-20T14:03:13;100285.59;;;7.95;44.82
74552;BME280;63025;55.472;38.432;2023-03-20T14:05:41;100290.31;;;7.64;45.18
74552;BME280;63025;55.472;38.432;2023-03-20T14:13:36;100281.47;;;7.78;44.98
74552;BME280;63025;55.472;38.432;2023-03-20T14:16:06;100268.81;;;7.72;45.31
74552;BME280;63025;55.472;38.432;2023-03-20T14:18:32;100274.00;;;7.44;45.78
74552;BME280;63025;55.472;38.432;2023-03-20T14:21:00;100277.13;;;7.33;45.92
74552;BME280;63025;55.472;38.432;2023-03-20T14:23:38;100278.22;;;7.24;46.79
74552;BME280;63025;55.472;38.432;2023-03-20T14:26:10;100283.81;;;7.14;46.85
74552;BME280;63025;55.472;38.432;2023-03-20T14:28:52;100286.94;;;6.80;47.61
74552;BME280;63025;55.472;38.432;2023-03-20T14:31:22;100280.00;;;6.71;47.90
74552;BME280;63025;55.472;38.432;2023-03-20T14:54:51;100262.59;;;5.60;51.51
74552;BME280;63025;55.472;38.432;2023-03-20T14:57:29;100253.63;;;5.44;51.91
74552;BME280;63025;55.472;38.432;2023-03-20T14:59:56;100260.47;;;5.39;52.28
74552;BME280;63025;55.472;38.432;2023-03-20T15:02:27;100259.66;;;5.30;52.92
74552;BME280;63025;55.472;38.432;2023-03-20T15:04:54;100265.38;;;5.19;53.06
74552;BME280;63025;55.472;38.432;2023-03-20T15:07:24;100255.41;;;4.97;53.22
74552;BME280;63025;55.472;38.432;2023-03-20T15:09:54;100257.72;;;4.92;53.96
74552;BME280;63025;55.472;38.432;2023-03-20T15:12:26;100259.22;;;4.86;54.20
74552;BME280;63025;55.472;38.432;2023-03-20T15:14:56;100260.22;;;4.69;54.53
74552;BME280;63025;55.472;38.432;2023-03-20T15:17:43;100265.06;;;4.65;55.33